Terminal Aerodrome Forecast
Issued by NWS Grand Forks, ND

Home | Current Version | Previous Version | Text Only | Print | Product List | Glossary Off
Versions: 1 2 3 4 5 6 7 8 9 10 11 12 13 14 15 16

607
FTUS43 KFGF 232029 AAG
TAFGFK
TAF AMD
KGFK 232029Z 2320/2418 13013KT P6SM VCTS BKN070CB
      TEMPO 2320/2322 5SM -TSRA BKN025CB
     FM240000 19007KT P6SM SCT200
     FM240300 26007KT P6SM FEW200
     FM241500 29014G20KT P6SM FEW250=

USA.gov is the U.S. government's official web portal to all federal, state and local government web resources and services.